Olga Topic — ELSG4 — position and weather

sailwx.info

Track history (hours):
 
Tides and Currents Weather Stations Pressure Air Temp Water Temp Dewpoint Dewpoint Depression Visibility Wind Speed Wind Dir Waves Ship Positions

Olga Topic

Last reported at 2016-Jul-19 20:31 UTC. Time now 2016-Jul-24 08:45 UTC.
Position N 26°05' W 079°25'.

Length 186 m; draft 6.7 m.

Type: Cargo ship. MMSI: 636010327.

Date/timePositionNaut miles runAvg speedWind from/ knotsBaromVisibWave heightAir tempDewpointWater temp
2016-Jul-19 20:31N 26°05' W 079°25'  
2016-Jul-17 04:10N 36°54' W 075°55'711.4
2016-Jul-17 03:34N 36°59' W 076°02'6412.4
2016-Jul-16 22:23N 38°03' W 076°13'6813.0
2016-Jul-16 17:10N 39°10' W 076°25'711.8
2016-Jul-16 16:33N 39°14' W 076°33'2 1.7
2016-Jul-16 15:34N 39°16' W 076°34'0 0.0
2016-Jul-16 14:33N 39°16' W 076°34'0 0.0
2016-Jul-16 13:33N 39°16' W 076°34'0 0.0
2016-Jul-16 12:33N 39°16' W 076°34'0 0.0
2016-Jul-16 11:33N 39°16' W 076°34'0 0.0
2016-Jul-16 10:33N 39°16' W 076°34'0 0.0
2016-Jul-16 09:33N 39°16' W 076°34'0 0.0
2016-Jul-16 08:33N 39°16' W 076°34'0 0.0
2016-Jul-16 07:33N 39°16' W 076°34'0 0.0
2016-Jul-16 06:33N 39°16' W 076°34'0 0.0
2016-Jul-16 04:33N 39°16' W 076°34'0 0.0
2016-Jul-16 03:33N 39°16' W 076°34'0 0.0
2016-Jul-16 02:33N 39°16' W 076°34'0 0.0
2016-Jul-16 01:33N 39°16' W 076°34'0 0.0
2016-Jul-16 00:33N 39°16' W 076°34'0 0.0
2016-Jul-15 23:33N 39°16' W 076°34'0 0.0
2016-Jul-15 22:33N 39°16' W 076°34'0 0.0
2016-Jul-15 21:33N 39°16' W 076°34'0 0.0
2016-Jul-15 20:33N 39°16' W 076°34'0 0.0
2016-Jul-15 19:33N 39°16' W 076°34'0 0.0
2016-Jul-15 18:33N 39°16' W 076°34'0 0.0
2016-Jul-15 17:33N 39°16' W 076°34'0 0.0
2016-Jul-15 16:33N 39°16' W 076°34'0 0.0
2016-Jul-15 15:33N 39°16' W 076°34'0 0.0
2016-Jul-15 14:33N 39°16' W 076°34'0 0.0
2016-Jul-15 13:33N 39°16' W 076°34'0 0.0
2016-Jul-15 12:33N 39°16' W 076°34'0 0.0
2016-Jul-15 11:33N 39°16' W 076°34'0 0.0
2016-Jul-15 10:33N 39°16' W 076°34'0 0.0
2016-Jul-15 09:33N 39°16' W 076°34'0 0.0
2016-Jul-15 08:10N 39°16' W 076°34'0 0.0
2016-Jul-15 07:31N 39°16' W 076°34'0 0.0
2016-Jul-15 06:33N 39°16' W 076°34'0 0.0
2016-Jul-15 05:33N 39°16' W 076°34'0 0.0
2016-Jul-15 04:33N 39°16' W 076°34'0 0.0
2016-Jul-15 03:33N 39°16' W 076°34'0 0.0
2016-Jul-15 02:33N 39°16' W 076°34'0 0.0
2016-Jul-15 01:33N 39°16' W 076°34'0 0.0
2016-Jul-15 00:33N 39°16' W 076°34'0 0.0
2016-Jul-14 23:33N 39°16' W 076°34'0 0.0
2016-Jul-14 22:33N 39°16' W 076°34'0 0.0
2016-Jul-14 21:33N 39°16' W 076°34'0 0.0
2016-Jul-14 20:33N 39°16' W 076°34'0 0.0
2016-Jul-14 19:33N 39°16' W 076°34'0 0.0
2016-Jul-14 18:33N 39°16' W 076°34'0 0.0
2016-Jul-14 17:33N 39°16' W 076°34'0 0.0
2016-Jul-14 16:34N 39°16' W 076°34'0 0.0
2016-Jul-14 15:33N 39°16' W 076°34'0 0.0
2016-Jul-14 14:33N 39°16' W 076°34'0 0.0
2016-Jul-14 13:33N 39°16' W 076°34'0 0.0
2016-Jul-14 12:33N 39°16' W 076°34'0 0.0
2016-Jul-14 11:33N 39°16' W 076°34'0 0.0
2016-Jul-14 10:33N 39°16' W 076°34'0 0.0
2016-Jul-14 09:33N 39°16' W 076°34'4 3.9
2016-Jul-14 08:32N 39°12' W 076°31'11 9.4
2016-Jul-14 07:24N 39°11' W 076°17'1011.7
2016-Jul-14 06:32N 39°20' W 076°12'1111.7
2016-Jul-14 05:33N 39°26' W 075°60'9 8.7
2016-Jul-14 04:33N 39°32' W 075°51'8 7.5
2016-Jul-14 03:33N 39°33' W 075°41'7 7.4
2016-Jul-14 02:33N 39°38' W 075°35'1212.2
2016-Jul-14 01:33N 39°48' W 075°26'1010.1
2016-Jul-14 00:33N 39°52' W 075°13'7 7.1
2016-Jul-13 23:33N 39°57' W 075°08'3 2.8
2016-Jul-13 22:33N 39°59' W 075°05'0 0.0
2016-Jul-13 21:33N 39°59' W 075°05'0 0.0
2016-Jul-13 20:33N 39°59' W 075°05'0 0.0
2016-Jul-13 19:33N 39°59' W 075°05'0 0.0
2016-Jul-13 18:33N 39°59' W 075°05'0 0.0
2016-Jul-13 17:33N 39°59' W 075°05'0 0.0
2016-Jul-13 16:33N 39°59' W 075°05'0 0.0
2016-Jul-13 15:30N 39°59' W 075°05'0 0.0
2016-Jul-13 14:33N 39°59' W 075°05'0 0.0
2016-Jul-13 13:33N 39°59' W 075°05'0 0.0
2016-Jul-13 12:33N 39°59' W 075°05'0 0.0
2016-Jul-13 11:33N 39°59' W 075°05'0 0.0
2016-Jul-13 10:33N 39°59' W 075°05'0 0.0
2016-Jul-13 09:33N 39°59' W 075°05'0 0.0
2016-Jul-13 08:33N 39°59' W 075°05'0 0.0
2016-Jul-13 07:30N 39°59' W 075°05'0 0.0
2016-Jul-13 06:33N 39°59' W 075°05'0 0.0
2016-Jul-13 05:33N 39°59' W 075°05'0 0.0
2016-Jul-13 04:33N 39°59' W 075°05'0 0.0
2016-Jul-13 03:33N 39°59' W 075°05'0 0.0
2016-Jul-13 02:33N 39°59' W 075°05'0 0.0
2016-Jul-13 01:33N 39°59' W 075°05'0 0.0
2016-Jul-13 00:33N 39°59' W 075°05'0 0.0
2016-Jul-12 23:33N 39°59' W 075°05'0 0.0
2016-Jul-12 22:32N 39°59' W 075°05'0 0.0
2016-Jul-12 21:32N 39°59' W 075°05'0 0.0
2016-Jul-12 20:32N 39°59' W 075°05'0 0.0
2016-Jul-12 19:32N 39°59' W 075°05'0 0.0
2016-Jul-12 18:32N 39°59' W 075°05'0 0.0
2016-Jul-12 17:32N 39°59' W 075°05'0 0.0
2016-Jul-12 16:32N 39°59' W 075°05'0 0.0
2016-Jul-12 15:32N 39°59' W 075°05'0 0.0
2016-Jul-12 14:32N 39°59' W 075°05'0 0.0
2016-Jul-12 13:32N 39°59' W 075°05'0 0.0
2016-Jul-12 12:29N 39°59' W 075°05'0 0.0
2016-Jul-12 11:32N 39°59' W 075°05'0 0.0
2016-Jul-12 10:32N 39°59' W 075°05'0 0.0
2016-Jul-12 09:32N 39°59' W 075°05'0 0.0
2016-Jul-12 08:32N 39°59' W 075°05'0 0.0
2016-Jul-12 07:32N 39°59' W 075°05'0 0.0
2016-Jul-12 06:32N 39°59' W 075°05'0 0.0
2016-Jul-12 05:32N 39°59' W 075°05'0 0.0
2016-Jul-12 04:32N 39°59' W 075°05'0 0.0
2016-Jul-12 03:32N 39°59' W 075°05'0 0.0
2016-Jul-12 02:32N 39°59' W 075°05'0 0.0
2016-Jul-12 01:32N 39°59' W 075°05'0 0.0
2016-Jul-12 00:32N 39°59' W 075°05'0 0.0
2016-Jul-11 23:31N 39°59' W 075°05'0 0.0
2016-Jul-11 22:33N 39°59' W 075°05'0 0.0
2016-Jul-11 21:34N 39°59' W 075°05'0 0.0
2016-Jul-11 20:32N 39°59' W 075°05'0 0.0
2016-Jul-11 19:32N 39°59' W 075°05'0 0.0
2016-Jul-11 18:32N 39°59' W 075°05'0 0.0
2016-Jul-11 17:32N 39°59' W 075°05'0 0.0
2016-Jul-11 16:32N 39°59' W 075°05'0 0.0
2016-Jul-11 15:32N 39°59' W 075°05'0 0.0
2016-Jul-11 14:32N 39°59' W 075°05'0 0.0
2016-Jul-11 13:32N 39°59' W 075°05'0 0.0
2016-Jul-11 12:32N 39°59' W 075°05'0 0.0
2016-Jul-11 11:32N 39°59' W 075°05'0 0.0
2016-Jul-11 10:32N 39°59' W 075°05'0 0.0
2016-Jul-11 09:32N 39°59' W 075°05'0 0.0
2016-Jul-11 08:32N 39°59' W 075°05'0 0.0
2016-Jul-11 07:31N 39°59' W 075°05'0 0.0
2016-Jul-11 06:31N 39°59' W 075°05'0 0.0
2016-Jul-11 04:31N 39°59' W 075°05'0 0.0
2016-Jul-11 03:31N 39°59' W 075°05'0 0.0
2016-Jul-11 02:31N 39°59' W 075°05'0 0.0
2016-Jul-11 01:27N 39°59' W 075°05'0 0.0
2016-Jul-11 00:33N 39°59' W 075°05'0 0.0
2016-Jul-10 23:33N 39°59' W 075°05'0 0.0
2016-Jul-10 22:32N 39°59' W 075°05'0 0.0
2016-Jul-10 21:31N 39°59' W 075°05'0 0.0
2016-Jul-10 20:31N 39°59' W 075°05'0 0.0
2016-Jul-10 19:31N 39°59' W 075°05'0 0.0
2016-Jul-10 18:31N 39°59' W 075°05'0 0.0
2016-Jul-10 17:31N 39°59' W 075°05'0 0.0
2016-Jul-10 16:31N 39°59' W 075°05'0 0.0
2016-Jul-10 15:31N 39°59' W 075°05'0 0.0
2016-Jul-10 14:28N 39°59' W 075°05'0 0.0
2016-Jul-10 13:31N 39°59' W 075°05'0 0.0
2016-Jul-10 12:31N 39°59' W 075°05'0 0.0
2016-Jul-10 11:31N 39°59' W 075°05'0 0.0
2016-Jul-10 10:31N 39°59' W 075°05'0 0.0
2016-Jul-10 09:31N 39°59' W 075°05'0 0.0
2016-Jul-10 08:31N 39°59' W 075°05'0 0.0
2016-Jul-10 07:31N 39°59' W 075°05'0 0.0
2016-Jul-10 06:31N 39°59' W 075°05'0 0.0
2016-Jul-10 05:31N 39°59' W 075°05'0 0.0
2016-Jul-10 04:31N 39°59' W 075°05'0 0.0
2016-Jul-10 03:31N 39°59' W 075°05'0 0.0
2016-Jul-10 02:32N 39°59' W 075°05'0 0.0
2016-Jul-10 01:32N 39°59' W 075°05'0 0.0
2016-Jul-10 00:32N 39°59' W 075°05'0 0.0
2016-Jul-09 23:33N 39°59' W 075°05'0 0.0
2016-Jul-09 22:32N 39°59' W 075°05'0 0.0
2016-Jul-09 21:30N 39°59' W 075°05'  
Track history (hours):
 
Tides and Currents Weather Stations Pressure Air Temp Water Temp Dewpoint Dewpoint Depression Visibility Wind Speed Wind Dir Waves Ship Positions

Olga Topic

Last reported at 2016-Jul-19 20:31 UTC. Time now 2016-Jul-24 08:45 UTC.
Position N 26°05' W 079°25'.

Length 186 m; draft 6.7 m.

Type: Cargo ship. MMSI: 636010327.

Date/timePositionNaut miles runAvg speedWind from/ knotsBaromVisibWave heightAir tempDewpointWater temp
2016-Jul-19 20:31N 26°05' W 079°25'  
2016-Jul-17 04:10N 36°54' W 075°55'711.4
2016-Jul-17 03:34N 36°59' W 076°02'6412.4
2016-Jul-16 22:23N 38°03' W 076°13'6813.0
2016-Jul-16 17:10N 39°10' W 076°25'711.8
2016-Jul-16 16:33N 39°14' W 076°33'2 1.7
2016-Jul-16 15:34N 39°16' W 076°34'0 0.0
2016-Jul-16 14:33N 39°16' W 076°34'0 0.0
2016-Jul-16 13:33N 39°16' W 076°34'0 0.0
2016-Jul-16 12:33N 39°16' W 076°34'0 0.0
2016-Jul-16 11:33N 39°16' W 076°34'0 0.0
2016-Jul-16 10:33N 39°16' W 076°34'0 0.0
2016-Jul-16 09:33N 39°16' W 076°34'0 0.0
2016-Jul-16 08:33N 39°16' W 076°34'0 0.0
2016-Jul-16 07:33N 39°16' W 076°34'0 0.0
2016-Jul-16 06:33N 39°16' W 076°34'0 0.0
2016-Jul-16 04:33N 39°16' W 076°34'0 0.0
2016-Jul-16 03:33N 39°16' W 076°34'0 0.0
2016-Jul-16 02:33N 39°16' W 076°34'0 0.0
2016-Jul-16 01:33N 39°16' W 076°34'0 0.0
2016-Jul-16 00:33N 39°16' W 076°34'0 0.0
2016-Jul-15 23:33N 39°16' W 076°34'0 0.0
2016-Jul-15 22:33N 39°16' W 076°34'0 0.0
2016-Jul-15 21:33N 39°16' W 076°34'0 0.0
2016-Jul-15 20:33N 39°16' W 076°34'0 0.0
2016-Jul-15 19:33N 39°16' W 076°34'0 0.0
2016-Jul-15 18:33N 39°16' W 076°34'0 0.0
2016-Jul-15 17:33N 39°16' W 076°34'0 0.0
2016-Jul-15 16:33N 39°16' W 076°34'0 0.0
2016-Jul-15 15:33N 39°16' W 076°34'0 0.0
2016-Jul-15 14:33N 39°16' W 076°34'0 0.0
2016-Jul-15 13:33N 39°16' W 076°34'0 0.0
2016-Jul-15 12:33N 39°16' W 076°34'0 0.0
2016-Jul-15 11:33N 39°16' W 076°34'0 0.0
2016-Jul-15 10:33N 39°16' W 076°34'0 0.0
2016-Jul-15 09:33N 39°16' W 076°34'0 0.0
2016-Jul-15 08:10N 39°16' W 076°34'0 0.0
2016-Jul-15 07:31N 39°16' W 076°34'0 0.0
2016-Jul-15 06:33N 39°16' W 076°34'0 0.0
2016-Jul-15 05:33N 39°16' W 076°34'0 0.0
2016-Jul-15 04:33N 39°16' W 076°34'0 0.0
2016-Jul-15 03:33N 39°16' W 076°34'0 0.0
2016-Jul-15 02:33N 39°16' W 076°34'0 0.0
2016-Jul-15 01:33N 39°16' W 076°34'0 0.0
2016-Jul-15 00:33N 39°16' W 076°34'0 0.0
2016-Jul-14 23:33N 39°16' W 076°34'0 0.0
2016-Jul-14 22:33N 39°16' W 076°34'0 0.0
2016-Jul-14 21:33N 39°16' W 076°34'0 0.0
2016-Jul-14 20:33N 39°16' W 076°34'0 0.0
2016-Jul-14 19:33N 39°16' W 076°34'0 0.0
2016-Jul-14 18:33N 39°16' W 076°34'0 0.0
2016-Jul-14 17:33N 39°16' W 076°34'0 0.0
2016-Jul-14 16:34N 39°16' W 076°34'0 0.0
2016-Jul-14 15:33N 39°16' W 076°34'0 0.0
2016-Jul-14 14:33N 39°16' W 076°34'0 0.0
2016-Jul-14 13:33N 39°16' W 076°34'0 0.0
2016-Jul-14 12:33N 39°16' W 076°34'0 0.0
2016-Jul-14 11:33N 39°16' W 076°34'0 0.0
2016-Jul-14 10:33N 39°16' W 076°34'0 0.0
2016-Jul-14 09:33N 39°16' W 076°34'4 3.9
2016-Jul-14 08:32N 39°12' W 076°31'11 9.4
2016-Jul-14 07:24N 39°11' W 076°17'1011.7
2016-Jul-14 06:32N 39°20' W 076°12'1111.7
2016-Jul-14 05:33N 39°26' W 075°60'9 8.7
2016-Jul-14 04:33N 39°32' W 075°51'8 7.5
2016-Jul-14 03:33N 39°33' W 075°41'7 7.4
2016-Jul-14 02:33N 39°38' W 075°35'1212.2
2016-Jul-14 01:33N 39°48' W 075°26'1010.1
2016-Jul-14 00:33N 39°52' W 075°13'7 7.1
2016-Jul-13 23:33N 39°57' W 075°08'3 2.8
2016-Jul-13 22:33N 39°59' W 075°05'0 0.0
2016-Jul-13 21:33N 39°59' W 075°05'0 0.0
2016-Jul-13 20:33N 39°59' W 075°05'0 0.0
2016-Jul-13 19:33N 39°59' W 075°05'0 0.0
2016-Jul-13 18:33N 39°59' W 075°05'0 0.0
2016-Jul-13 17:33N 39°59' W 075°05'0 0.0
2016-Jul-13 16:33N 39°59' W 075°05'0 0.0
2016-Jul-13 15:30N 39°59' W 075°05'0 0.0
2016-Jul-13 14:33N 39°59' W 075°05'0 0.0
2016-Jul-13 13:33N 39°59' W 075°05'0 0.0
2016-Jul-13 12:33N 39°59' W 075°05'0 0.0
2016-Jul-13 11:33N 39°59' W 075°05'0 0.0
2016-Jul-13 10:33N 39°59' W 075°05'0 0.0
2016-Jul-13 09:33N 39°59' W 075°05'0 0.0
2016-Jul-13 08:33N 39°59' W 075°05'0 0.0
2016-Jul-13 07:30N 39°59' W 075°05'0 0.0
2016-Jul-13 06:33N 39°59' W 075°05'0 0.0
2016-Jul-13 05:33N 39°59' W 075°05'0 0.0
2016-Jul-13 04:33N 39°59' W 075°05'0 0.0
2016-Jul-13 03:33N 39°59' W 075°05'0 0.0
2016-Jul-13 02:33N 39°59' W 075°05'0 0.0
2016-Jul-13 01:33N 39°59' W 075°05'0 0.0
2016-Jul-13 00:33N 39°59' W 075°05'0 0.0
2016-Jul-12 23:33N 39°59' W 075°05'0 0.0
2016-Jul-12 22:32N 39°59' W 075°05'0 0.0
2016-Jul-12 21:32N 39°59' W 075°05'0 0.0
2016-Jul-12 20:32N 39°59' W 075°05'0 0.0
2016-Jul-12 19:32N 39°59' W 075°05'0 0.0
2016-Jul-12 18:32N 39°59' W 075°05'0 0.0
2016-Jul-12 17:32N 39°59' W 075°05'0 0.0
2016-Jul-12 16:32N 39°59' W 075°05'0 0.0
2016-Jul-12 15:32N 39°59' W 075°05'0 0.0
2016-Jul-12 14:32N 39°59' W 075°05'0 0.0
2016-Jul-12 13:32N 39°59' W 075°05'0 0.0
2016-Jul-12 12:29N 39°59' W 075°05'0 0.0
2016-Jul-12 11:32N 39°59' W 075°05'0 0.0
2016-Jul-12 10:32N 39°59' W 075°05'0 0.0
2016-Jul-12 09:32N 39°59' W 075°05'0 0.0
2016-Jul-12 08:32N 39°59' W 075°05'0 0.0
2016-Jul-12 07:32N 39°59' W 075°05'0 0.0
2016-Jul-12 06:32N 39°59' W 075°05'0 0.0
2016-Jul-12 05:32N 39°59' W 075°05'0 0.0
2016-Jul-12 04:32N 39°59' W 075°05'0 0.0
2016-Jul-12 03:32N 39°59' W 075°05'0 0.0
2016-Jul-12 02:32N 39°59' W 075°05'0 0.0
2016-Jul-12 01:32N 39°59' W 075°05'0 0.0
2016-Jul-12 00:32N 39°59' W 075°05'0 0.0
2016-Jul-11 23:31N 39°59' W 075°05'0 0.0
2016-Jul-11 22:33N 39°59' W 075°05'0 0.0
2016-Jul-11 21:34N 39°59' W 075°05'0 0.0
2016-Jul-11 20:32N 39°59' W 075°05'0 0.0
2016-Jul-11 19:32N 39°59' W 075°05'0 0.0
2016-Jul-11 18:32N 39°59' W 075°05'0 0.0
2016-Jul-11 17:32N 39°59' W 075°05'0 0.0
2016-Jul-11 16:32N 39°59' W 075°05'0 0.0
2016-Jul-11 15:32N 39°59' W 075°05'0 0.0
2016-Jul-11 14:32N 39°59' W 075°05'0 0.0
2016-Jul-11 13:32N 39°59' W 075°05'0 0.0
2016-Jul-11 12:32N 39°59' W 075°05'0 0.0
2016-Jul-11 11:32N 39°59' W 075°05'0 0.0
2016-Jul-11 10:32N 39°59' W 075°05'0 0.0
2016-Jul-11 09:32N 39°59' W 075°05'0 0.0
2016-Jul-11 08:32N 39°59' W 075°05'0 0.0
2016-Jul-11 07:31N 39°59' W 075°05'0 0.0
2016-Jul-11 06:31N 39°59' W 075°05'0 0.0
2016-Jul-11 04:31N 39°59' W 075°05'0 0.0
2016-Jul-11 03:31N 39°59' W 075°05'0 0.0
2016-Jul-11 02:31N 39°59' W 075°05'0 0.0
2016-Jul-11 01:27N 39°59' W 075°05'0 0.0
2016-Jul-11 00:33N 39°59' W 075°05'0 0.0
2016-Jul-10 23:33N 39°59' W 075°05'0 0.0
2016-Jul-10 22:32N 39°59' W 075°05'0 0.0
2016-Jul-10 21:31N 39°59' W 075°05'0 0.0
2016-Jul-10 20:31N 39°59' W 075°05'0 0.0
2016-Jul-10 19:31N 39°59' W 075°05'0 0.0
2016-Jul-10 18:31N 39°59' W 075°05'0 0.0
2016-Jul-10 17:31N 39°59' W 075°05'0 0.0
2016-Jul-10 16:31N 39°59' W 075°05'0 0.0
2016-Jul-10 15:31N 39°59' W 075°05'0 0.0
2016-Jul-10 14:28N 39°59' W 075°05'0 0.0
2016-Jul-10 13:31N 39°59' W 075°05'0 0.0
2016-Jul-10 12:31N 39°59' W 075°05'0 0.0
2016-Jul-10 11:31N 39°59' W 075°05'0 0.0
2016-Jul-10 10:31N 39°59' W 075°05'0 0.0
2016-Jul-10 09:31N 39°59' W 075°05'0 0.0
2016-Jul-10 08:31N 39°59' W 075°05'0 0.0
2016-Jul-10 07:31N 39°59' W 075°05'0 0.0
2016-Jul-10 06:31N 39°59' W 075°05'0 0.0
2016-Jul-10 05:31N 39°59' W 075°05'0 0.0
2016-Jul-10 04:31N 39°59' W 075°05'0 0.0
2016-Jul-10 03:31N 39°59' W 075°05'0 0.0
2016-Jul-10 02:32N 39°59' W 075°05'0 0.0
2016-Jul-10 01:32N 39°59' W 075°05'0 0.0
2016-Jul-10 00:32N 39°59' W 075°05'0 0.0
2016-Jul-09 23:33N 39°59' W 075°05'0 0.0
2016-Jul-09 22:32N 39°59' W 075°05'0 0.0
2016-Jul-09 21:30N 39°59' W 075°05'  

Dump ship's entire track history